Melissa, Texas
Current Conditions -  °F | °C
As of 4:53 PM on Saturday 25 Oct 2014 (Local Time) from KTKI Reporting Station
Clear Clear  
Wind Chill: 87°   Ceiling: Unl
Heat Index: 87°   Visibility: 10mi
Dew Point: 60°   Wind: 9mph
Humidity: 40%   Direction: 190°S
Pressure: 30.06"   Gusts: NA
Location:  33.29°N, 96.57°W
Report Text: KTKI 252153Z 19008KT 10SM CLR 31/16 A3006 RMK AO2 SLP175 T03060156
Loading
Personal Weather Stations






























Interactive Weather Map
Tropical Storm Tracking
New forecast layout! Learn more

10-Day Weather Forecast

Advertisements
Track Severe Weather on mobile